Thursday, February 22, 2018, 5:08 PM GMT
Back to Local

CYUL, Montreal / Pierre Elliot Trudeau International Airport, Que

Location: , , Canada Lat: 45.467
Local Time: 5:08 PM GMT (17:08 GMT) Lon: -73.75
Time Zone: GMT Elev: 101 ft

Show me the last for .
Show Decoded

2018-02-22 16:00 METAR CYUL 221600Z 05005KT 30SM OVC170 M06/M13 A3078 RMK AS8 SLP427 =
2018-02-22 15:00 METAR CYUL 221500Z 03008KT 15SM OVC170 M06/M13 A3077 RMK AS8 SLP423 =
2018-02-22 14:00 METAR CYUL 221400Z 07008KT 15SM BKN180 OVC190 M06/M14 A3077 RMK AC6AS2 SLP423 =
2018-02-22 13:00 METAR CYUL 221300Z 06007KT 30SM FEW180 BKN210 M06/M13 A3076 RMK AC2CI5 CC ASOCT
                 CONTRAILS SLP421 =
2018-02-22 12:00 METAR CYUL 221200Z 05010KT 30SM BKN220 M06/M12 A3073 RMK CC7 SLP411 =
2018-02-22 11:00 METAR CYUL 221100Z 04009KT 15SM FEW180 SCT240 M07/M12 A3071 RMK AC1CC3 SLP405 =
2018-02-22 10:00 METAR CYUL 221000Z 04008KT 15SM FEW240 M07/M13 A3071 RMK CI1 CI TR SLP402 =
2018-02-22 09:00 METAR CYUL 220900Z 36004KT 15SM FEW240 M05/M12 A3069 RMK CI1 SLP396 =
2018-02-22 08:00 METAR CYUL 220800Z 34004KT 15SM FEW240 M05/M12 A3068 RMK CI2 SLP392 =
2018-02-22 07:00 METAR CYUL 220700Z 33005KT 15SM FEW240 M03/M12 A3066 RMK CI2 SLP386 =
2018-02-22 06:00 METAR CYUL 220600Z 31007KT 15SM SCT240 M03/M11 A3065 RMK CI3 SLP381 =
2018-02-22 05:00 METAR CYUL 220500Z 31009KT 15SM SKC M02/M10 A3061 RMK SLP369 =
2018-02-22 04:00 METAR CYUL 220400Z 30009KT 15SM SKC M01/M10 A3058 RMK PRESRR SLP359 =

Support USWX by starting your Amazon purchase here.